sensor_id;sensor_type;location;lat;lon;timestamp;pressure;altitude;pressure_sealevel;temperature;humidity
9774;BME280;4926;42.670;23.316;2023-03-22T00:02:07;94191.94;;;10.98;100.00
9774;BME280;4926;42.670;23.316;2023-03-22T00:04:34;94194.81;;;10.88;100.00
9774;BME280;4926;42.670;23.316;2023-03-22T00:07:01;94197.94;;;10.90;100.00
9774;BME280;4926;42.670;23.316;2023-03-22T00:09:27;94198.81;;;10.99;100.00
9774;BME280;4926;42.670;23.316;2023-03-22T00:11:55;94190.84;;;10.99;100.00
9774;BME280;4926;42.670;23.316;2023-03-22T00:14:25;94197.44;;;11.01;100.00
9774;BME280;4926;42.670;23.316;2023-03-22T00:16:53;94187.47;;;10.93;100.00
9774;BME280;4926;42.670;23.316;2023-03-22T00:19:20;94190.44;;;10.92;100.00
9774;BME280;4926;42.670;23.316;2023-03-22T00:21:47;94194.22;;;10.91;100.00
9774;BME280;4926;42.670;23.316;2023-03-22T00:24:18;94185.94;;;10.79;100.00
9774;BME280;4926;42.670;23.316;2023-03-22T00:26:46;94185.81;;;10.84;100.00
9774;BME280;4926;42.670;23.316;2023-03-22T00:29:12;94182.06;;;10.85;100.00
9774;BME280;4926;42.670;23.316;2023-03-22T00:31:43;94184.53;;;10.68;100.00
9774;BME280;4926;42.670;23.316;2023-03-22T00:34:09;94185.34;;;10.68;100.00
9774;BME280;4926;42.670;23.316;2023-03-22T00:36:36;94186.13;;;10.69;100.00
9774;BME280;4926;42.670;23.316;2023-03-22T00:39:03;94179.03;;;10.64;100.00
9774;BME280;4926;42.670;23.316;2023-03-22T00:41:31;94184.66;;;10.63;100.00
9774;BME280;4926;42.670;23.316;2023-03-22T00:44:01;94176.47;;;10.73;100.00
9774;BME280;4926;42.670;23.316;2023-03-22T00:46:27;94173.50;;;10.74;100.00
9774;BME280;4926;42.670;23.316;2023-03-22T00:48:55;94162.66;;;10.71;100.00
9774;BME280;4926;42.670;23.316;2023-03-22T00:51:24;94168.38;;;10.78;100.00
9774;BME280;4926;42.670;23.316;2023-03-22T00:53:51;94167.59;;;10.77;100.00
9774;BME280;4926;42.670;23.316;2023-03-22T00:56:19;94169.34;;;10.82;100.00
9774;BME280;4926;42.670;23.316;2023-03-22T00:58:54;94180.00;;;10.82;100.00
9774;BME280;4926;42.670;23.316;2023-03-22T01:01:21;94173.50;;;10.74;100.00
9774;BME280;4926;42.670;23.316;2023-03-22T01:03:47;94162.66;;;10.71;100.00
9774;BME280;4926;42.670;23.316;2023-03-22T01:06:17;94172.13;;;10.77;100.00
9774;BME280;4926;42.670;23.316;2023-03-22T01:08:43;94158.31;;;10.75;100.00
9774;BME280;4926;42.670;23.316;2023-03-22T01:11:11;94164.44;;;10.75;100.00
9774;BME280;4926;42.670;23.316;2023-03-22T01:13:40;94163.75;;;10.70;100.00
9774;BME280;4926;42.670;23.316;2023-03-22T01:16:08;94161.69;;;10.67;100.00
9774;BME280;4926;42.670;23.316;2023-03-22T01:18:38;94160.47;;;10.73;100.00
9774;BME280;4926;42.670;23.316;2023-03-22T01:21:05;94148.69;;;10.65;100.00
9774;BME280;4926;42.670;23.316;2023-03-22T01:23:34;94156.84;;;10.69;100.00
9774;BME280;4926;42.670;23.316;2023-03-22T01:26:01;94149.44;;;10.66;100.00
9774;BME280;4926;42.670;23.316;2023-03-22T01:28:28;94147.88;;;10.65;100.00
9774;BME280;4926;42.670;23.316;2023-03-22T01:30:56;94155.97;;;10.73;100.00
9774;BME280;4926;42.670;23.316;2023-03-22T01:33:26;94153.19;;;10.65;100.00
9774;BME280;4926;42.670;23.316;2023-03-22T01:35:52;94156.38;;;10.67;100.00
9774;BME280;4926;42.670;23.316;2023-03-22T01:38:19;94145.31;;;10.60;100.00
9774;BME280;4926;42.670;23.316;2023-03-22T01:40:48;94146.50;;;10.54;100.00
9774;BME280;4926;42.670;23.316;2023-03-22T01:43:16;94154.56;;;10.49;100.00
9774;BME280;4926;42.670;23.316;2023-03-22T01:45:43;94144.31;;;10.56;100.00
9774;BME280;4926;42.670;23.316;2023-03-22T01:48:20;94148.09;;;10.55;100.00
9774;BME280;4926;42.670;23.316;2023-03-22T01:50:59;94143.34;;;10.52;100.00
9774;BME280;4926;42.670;23.316;2023-03-22T01:53:29;94153.97;;;10.52;100.00
9774;BME280;4926;42.670;23.316;2023-03-22T01:56:01;94143.84;;;10.54;100.00
9774;BME280;4926;42.670;23.316;2023-03-22T01:58:28;94141.38;;;10.57;100.00
9774;BME280;4926;42.670;23.316;2023-03-22T02:00:55;94141.16;;;10.54;100.00
9774;BME280;4926;42.670;23.316;2023-03-22T02:03:31;94151.13;;;10.62;100.00
9774;BME280;4926;42.670;23.316;2023-03-22T02:06:00;94140.78;;;10.47;100.00
9774;BME280;4926;42.670;23.316;2023-03-22T02:08:29;94153.00;;;10.48;100.00
9774;BME280;4926;42.670;23.316;2023-03-22T02:10:59;94139.00;;;10.42;100.00
9774;BME280;4926;42.670;23.316;2023-03-22T02:13:46;94141.38;;;10.44;100.00
9774;BME280;4926;42.670;23.316;2023-03-22T02:16:27;94143.72;;;10.45;100.00
9774;BME280;4926;42.670;23.316;2023-03-22T02:19:09;94145.69;;;10.40;100.00
9774;BME280;4926;42.670;23.316;2023-03-22T02:28:00;94149.34;;;10.44;100.00
9774;BME280;4926;42.670;23.316;2023-03-22T02:30:54;94149.25;;;10.49;100.00
9774;BME280;4926;42.670;23.316;2023-03-22T02:37:02;94156.53;;;10.30;100.00
9774;BME280;4926;42.670;23.316;2023-03-22T02:39:43;94166.00;;;10.36;100.00
9774;BME280;4926;42.670;23.316;2023-03-22T02:42:26;94161.84;;;10.30;100.00
9774;BME280;4926;42.670;23.316;2023-03-22T02:44:59;94164.91;;;10.37;100.00
9774;BME280;4926;42.670;23.316;2023-03-22T02:47:34;94171.72;;;10.43;100.00
9774;BME280;4926;42.670;23.316;2023-03-22T02:50:08;94164.81;;;10.42;100.00
9774;BME280;4926;42.670;23.316;2023-03-22T02:52:37;94166.88;;;10.45;100.00
9774;BME280;4926;42.670;23.316;2023-03-22T02:55:11;94176.06;;;10.39;100.00
9774;BME280;4926;42.670;23.316;2023-03-22T02:57:43;94174.06;;;10.31;100.00
9774;BME280;4926;42.670;23.316;2023-03-22T03:00:13;94173.47;;;10.20;100.00
9774;BME280;4926;42.670;23.316;2023-03-22T03:02:47;94158.38;;;10.16;100.00
9774;BME280;4926;42.670;23.316;2023-03-22T03:05:16;94167.38;;;10.20;100.00
9774;BME280;4926;42.670;23.316;2023-03-22T03:07:47;94174.47;;;10.24;100.00
9774;BME280;4926;42.670;23.316;2023-03-22T03:10:18;94174.66;;;10.28;100.00
9774;BME280;4926;42.670;23.316;2023-03-22T03:12:45;94171.31;;;10.22;100.00
9774;BME280;4926;42.670;23.316;2023-03-22T03:15:15;94166.19;;;10.26;100.00
9774;BME280;4926;42.670;23.316;2023-03-22T03:17:56;94172.50;;;10.30;100.00
9774;BME280;4926;42.670;23.316;2023-03-22T03:20:37;94176.63;;;10.36;100.00
9774;BME280;4926;42.670;23.316;2023-03-22T03:23:15;94172.31;;;10.40;100.00
9774;BME280;4926;42.670;23.316;2023-03-22T03:25:51;94174.47;;;10.38;100.00
9774;BME280;4926;42.670;23.316;2023-03-22T03:28:25;94177.81;;;10.30;100.00
9774;BME280;4926;42.670;23.316;2023-03-22T03:31:07;94175.66;;;10.32;100.00
9774;BME280;4926;42.670;23.316;2023-03-22T03:33:39;94179.09;;;10.32;100.00
9774;BME280;4926;42.670;23.316;2023-03-22T03:36:09;94184.13;;;10.34;100.00
9774;BME280;4926;42.670;23.316;2023-03-22T03:38:40;94184.53;;;10.41;100.00
9774;BME280;4926;42.670;23.316;2023-03-22T03:41:17;94185.41;;;10.23;100.00
9774;BME280;4926;42.670;23.316;2023-03-22T03:43:46;94187.47;;;10.26;100.00
9774;BME280;4926;42.670;23.316;2023-03-22T03:46:14;94190.03;;;10.31;100.00
9774;BME280;4926;42.670;23.316;2023-03-22T03:48:47;94188.47;;;10.30;100.00
9774;BME280;4926;42.670;23.316;2023-03-22T03:51:15;94192.97;;;10.29;100.00
9774;BME280;4926;42.670;23.316;2023-03-22T03:53:41;94187.97;;;10.28;100.00
9774;BME280;4926;42.670;23.316;2023-03-22T03:56:09;94185.41;;;10.23;100.00
9774;BME280;4926;42.670;23.316;2023-03-22T03:58:37;94196.03;;;10.23;100.00
9774;BME280;4926;42.670;23.316;2023-03-22T04:01:04;94190.00;;;10.17;100.00
9774;BME280;4926;42.670;23.316;2023-03-22T04:03:33;94187.56;;;10.21;100.00
9774;BME280;4926;42.670;23.316;2023-03-22T04:06:00;94200.19;;;10.29;100.00
9774;BME280;4926;42.670;23.316;2023-03-22T04:08:30;94199.19;;;10.25;100.00
9774;BME280;4926;42.670;23.316;2023-03-22T04:10:57;94196.94;;;10.18;100.00
9774;BME280;4926;42.670;23.316;2023-03-22T04:13:24;94202.50;;;10.17;100.00
9774;BME280;4926;42.670;23.316;2023-03-22T04:15:57;94199.59;;;10.18;100.00
9774;BME280;4926;42.670;23.316;2023-03-22T04:18:26;94198.19;;;10.21;100.00
9774;BME280;4926;42.670;23.316;2023-03-22T04:20:54;94202.50;;;10.17;100.00
9774;BME280;4926;42.670;23.316;2023-03-22T04:23:24;94190.75;;;10.04;100.00
9774;BME280;4926;42.670;23.316;2023-03-22T04:25:50;94198.81;;;10.31;100.00
9774;BME280;4926;42.670;23.316;2023-03-22T04:28:17;94198.41;;;10.24;100.00
9774;BME280;4926;42.670;23.316;2023-03-22T04:30:45;94203.41;;;10.26;100.00
9774;BME280;4926;42.670;23.316;2023-03-22T04:33:19;94204.44;;;10.30;100.00
9774;BME280;4926;42.670;23.316;2023-03-22T04:35:47;94206.00;;;10.31;100.00
9774;BME280;4926;42.670;23.316;2023-03-22T04:38:15;94214.03;;;10.12;100.00
9774;BME280;4926;42.670;23.316;2023-03-22T04:40:45;94219.56;;;10.16;100.00
9774;BME280;4926;42.670;23.316;2023-03-22T04:43:12;94201.91;;;9.87;100.00
9774;BME280;4926;42.670;23.316;2023-03-22T04:45:40;94216.44;;;9.95;100.00
9774;BME280;4926;42.670;23.316;2023-03-22T04:48:08;94209.31;;;9.90;100.00
9774;BME280;4926;42.670;23.316;2023-03-22T04:50:38;94218.06;;;9.91;100.00
9774;BME280;4926;42.670;23.316;2023-03-22T04:53:05;94224.97;;;9.92;100.00
9774;BME280;4926;42.670;23.316;2023-03-22T04:55:35;94220.66;;;9.96;100.00
9774;BME280;4926;42.670;23.316;2023-03-22T04:58:02;94233.66;;;9.97;100.00
9774;BME280;4926;42.670;23.316;2023-03-22T05:00:30;94231.06;;;9.92;100.00
9774;BME280;4926;42.670;23.316;2023-03-22T05:02:59;94234.69;;;9.83;100.00
9774;BME280;4926;42.670;23.316;2023-03-22T05:05:28;94242.66;;;9.83;100.00
9774;BME280;4926;42.670;23.316;2023-03-22T05:07:56;94238.13;;;9.83;100.00
9774;BME280;4926;42.670;23.316;2023-03-22T05:10:25;94231.25;;;9.82;100.00
9774;BME280;4926;42.670;23.316;2023-03-22T05:12:51;94228.06;;;9.80;100.00
9774;BME280;4926;42.670;23.316;2023-03-22T05:15:18;94237.91;;;9.80;100.00
9774;BME280;4926;42.670;23.316;2023-03-22T05:17:52;94243.44;;;9.83;100.00
9774;BME280;4926;42.670;23.316;2023-03-22T05:20:19;94240.06;;;9.78;100.00
9774;BME280;4926;42.670;23.316;2023-03-22T05:22:46;94245.03;;;9.84;100.00
9774;BME280;4926;42.670;23.316;2023-03-22T05:25:19;94247.31;;;9.91;100.00
9774;BME280;4926;42.670;23.316;2023-03-22T05:27:48;94250.78;;;9.91;100.00
9774;BME280;4926;42.670;23.316;2023-03-22T05:30:18;94257.06;;;9.95;100.00
9774;BME280;4926;42.670;23.316;2023-03-22T05:32:45;94251.75;;;9.95;100.00
9774;BME280;4926;42.670;23.316;2023-03-22T05:35:14;94260.81;;;9.94;100.00
9774;BME280;4926;42.670;23.316;2023-03-22T05:37:41;94265.41;;;10.07;100.00
9774;BME280;4926;42.670;23.316;2023-03-22T05:40:08;94256.88;;;10.10;100.00
9774;BME280;4926;42.670;23.316;2023-03-22T05:42:38;94258.94;;;10.13;100.00
9774;BME280;4926;42.670;23.316;2023-03-22T05:45:07;94253.97;;;10.07;100.00
9774;BME280;4926;42.670;23.316;2023-03-22T05:47:34;94259.53;;;10.10;100.00
9774;BME280;4926;42.670;23.316;2023-03-22T05:50:04;94263.63;;;10.03;100.00
9774;BME280;4926;42.670;23.316;2023-03-22T05:52:31;94262.72;;;10.13;100.00
9774;BME280;4926;42.670;23.316;2023-03-22T05:54:58;94271.88;;;10.20;100.00
9774;BME280;4926;42.670;23.316;2023-03-22T05:57:27;94269.41;;;10.24;100.00
9774;BME280;4926;42.670;23.316;2023-03-22T05:59:58;94275.84;;;10.23;100.00
9774;BME280;4926;42.670;23.316;2023-03-22T06:02:28;94270.69;;;10.13;100.00
9774;BME280;4926;42.670;23.316;2023-03-22T06:04:55;94279.09;;;10.20;100.00
9774;BME280;4926;42.670;23.316;2023-03-22T06:07:23;94281.25;;;10.18;100.00
9774;BME280;4926;42.670;23.316;2023-03-22T06:09:50;94283.31;;;10.21;100.00
9774;BME280;4926;42.670;23.316;2023-03-22T06:12:19;94277.41;;;10.24;100.00
9774;BME280;4926;42.670;23.316;2023-03-22T06:14:49;94283.13;;;10.31;100.00
9774;BME280;4926;42.670;23.316;2023-03-22T06:17:17;94285.25;;;10.34;100.00
9774;BME280;4926;42.670;23.316;2023-03-22T06:19:44;94287.00;;;10.38;100.00
9774;BME280;4926;42.670;23.316;2023-03-22T06:22:10;94283.06;;;10.36;100.00
9774;BME280;4926;42.670;23.316;2023-03-22T06:24:39;94285.44;;;10.37;100.00
9774;BME280;4926;42.670;23.316;2023-03-22T06:27:06;94280.53;;;10.44;100.00
9774;BME280;4926;42.670;23.316;2023-03-22T06:29:35;94284.69;;;10.50;100.00
9774;BME280;4926;42.670;23.316;2023-03-22T06:32:04;94287.63;;;10.49;100.00
9774;BME280;4926;42.670;23.316;2023-03-22T06:34:32;94293.53;;;10.46;100.00
9774;BME280;4926;42.670;23.316;2023-03-22T06:36:59;94297.13;;;10.55;100.00
9774;BME280;4926;42.670;23.316;2023-03-22T06:39:26;94299.50;;;10.56;100.00
9774;BME280;4926;42.670;23.316;2023-03-22T06:41:55;94299.31;;;10.66;100.00
9774;BME280;4926;42.670;23.316;2023-03-22T06:44:25;94302.75;;;10.67;100.00
9774;BME280;4926;42.670;23.316;2023-03-22T06:46:51;94306.41;;;10.71;100.00
9774;BME280;4926;42.670;23.316;2023-03-22T06:49:18;94283.53;;;10.70;100.00
9774;BME280;4926;42.670;23.316;2023-03-22T06:51:47;94310.56;;;10.90;100.00
9774;BME280;4926;42.670;23.316;2023-03-22T06:54:14;94300.72;;;10.91;100.00
9774;BME280;4926;42.670;23.316;2023-03-22T06:56:41;94301.13;;;10.84;100.00
9774;BME280;4926;42.670;23.316;2023-03-22T06:59:10;94312.44;;;10.90;100.00
9774;BME280;4926;42.670;23.316;2023-03-22T07:01:37;94310.19;;;10.97;100.00
9774;BME280;4926;42.670;23.316;2023-03-22T07:04:05;94313.53;;;10.89;100.00
9774;BME280;4926;42.670;23.316;2023-03-22T07:06:31;94325.97;;;10.93;100.00
9774;BME280;4926;42.670;23.316;2023-03-22T07:09:02;94322.13;;;10.99;100.00
9774;BME280;4926;42.670;23.316;2023-03-22T07:11:29;94317.50;;;11.05;100.00
9774;BME280;4926;42.670;23.316;2023-03-22T07:13:58;94320.88;;;11.10;100.00
9774;BME280;4926;42.670;23.316;2023-03-22T07:16:28;94328.25;;;11.27;100.00
9774;BME280;4926;42.670;23.316;2023-03-22T07:18:55;94330.63;;;11.28;100.00
9774;BME280;4926;42.670;23.316;2023-03-22T07:21:22;94328.75;;;11.29;100.00
9774;BME280;4926;42.670;23.316;2023-03-22T07:23:48;94337.56;;;11.30;100.00
9774;BME280;4926;42.670;23.316;2023-03-22T07:26:17;94331.31;;;11.20;100.00
9774;BME280;4926;42.670;23.316;2023-03-22T07:28:43;94336.44;;;11.17;100.00
9774;BME280;4926;42.670;23.316;2023-03-22T07:31:11;94338.03;;;11.18;100.00
9774;BME280;4926;42.670;23.316;2023-03-22T07:33:38;94347.09;;;11.17;100.00
9774;BME280;4926;42.670;23.316;2023-03-22T07:36:06;94345.53;;;11.30;100.00
9774;BME280;4926;42.670;23.316;2023-03-22T07:38:34;94342.19;;;11.24;100.00
9774;BME280;4926;42.670;23.316;2023-03-22T07:41:04;94342.72;;;10.94;100.00
9774;BME280;4926;42.670;23.316;2023-03-22T07:43:32;94341.72;;;10.90;100.00
9774;BME280;4926;42.670;23.316;2023-03-22T07:46:04;94354.78;;;10.91;100.00
9774;BME280;4926;42.670;23.316;2023-03-22T07:48:30;94351.72;;;10.98;100.00
9774;BME280;4926;42.670;23.316;2023-03-22T07:50:58;94353.97;;;10.91;100.00
9774;BME280;4926;42.670;23.316;2023-03-22T07:53:25;94354.94;;;10.81;100.00
9774;BME280;4926;42.670;23.316;2023-03-22T07:55:53;94355.72;;;10.82;100.00
9774;BME280;4926;42.670;23.316;2023-03-22T07:58:22;94360.31;;;10.95;100.00
9774;BME280;4926;42.670;23.316;2023-03-22T08:00:50;94358.13;;;10.97;100.00
9774;BME280;4926;42.670;23.316;2023-03-22T08:03:23;94361.88;;;10.96;100.00
9774;BME280;4926;42.670;23.316;2023-03-22T08:05:49;94353.19;;;10.90;100.00
9774;BME280;4926;42.670;23.316;2023-03-22T08:08:17;94357.16;;;11.06;100.00
9774;BME280;4926;42.670;23.316;2023-03-22T08:10:47;94343.00;;;10.79;100.00
9774;BME280;4926;42.670;23.316;2023-03-22T08:13:17;94352.84;;;10.65;100.00
9774;BME280;4926;42.670;23.316;2023-03-22T08:15:43;94364.59;;;10.77;100.00
9774;BME280;4926;42.670;23.316;2023-03-22T08:18:12;94367.38;;;10.86;100.00
9774;BME280;4926;42.670;23.316;2023-03-22T08:20:38;94357.16;;;10.93;100.00
9774;BME280;4926;42.670;23.316;2023-03-22T08:23:05;94361.47;;;10.89;100.00
9774;BME280;4926;42.670;23.316;2023-03-22T08:25:36;94360.31;;;10.95;100.00
9774;BME280;4926;42.670;23.316;2023-03-22T08:28:05;94368.00;;;11.10;100.00
9774;BME280;4926;42.670;23.316;2023-03-22T08:30:35;94370.59;;;11.15;100.00
9774;BME280;4926;42.670;23.316;2023-03-22T08:33:05;94375.50;;;11.08;100.00
9774;BME280;4926;42.670;23.316;2023-03-22T08:35:33;94373.75;;;11.17;100.00
9774;BME280;4926;42.670;23.316;2023-03-22T08:38:00;94368.81;;;11.24;100.00
9774;BME280;4926;42.670;23.316;2023-03-22T08:40:27;94367.47;;;11.27;100.00
9774;BME280;4926;42.670;23.316;2023-03-22T08:42:56;94368.72;;;11.29;100.00
9774;BME280;4926;42.670;23.316;2023-03-22T08:45:23;94373.56;;;11.41;100.00
9774;BME280;4926;42.670;23.316;2023-03-22T08:47:52;94376.41;;;11.44;100.00
9774;BME280;4926;42.670;23.316;2023-03-22T08:50:19;94374.16;;;11.38;100.00
9774;BME280;4926;42.670;23.316;2023-03-22T08:52:47;94381.56;;;11.41;100.00
9774;BME280;4926;42.670;23.316;2023-03-22T08:55:14;94375.94;;;11.42;100.00
9774;BME280;4926;42.670;23.316;2023-03-22T08:57:42;94386.22;;;11.35;100.00
9774;BME280;4926;42.670;23.316;2023-03-22T09:00:16;94387.19;;;11.39;100.00
9774;BME280;4926;42.670;23.316;2023-03-22T09:02:43;94386.41;;;11.39;100.00
9774;BME280;4926;42.670;23.316;2023-03-22T09:05:10;94389.53;;;11.27;100.00
9774;BME280;4926;42.670;23.316;2023-03-22T09:07:39;94381.66;;;11.22;100.00
9774;BME280;4926;42.670;23.316;2023-03-22T09:10:09;94384.00;;;11.10;100.00
9774;BME280;4926;42.670;23.316;2023-03-22T09:12:36;94384.50;;;10.98;100.00
9774;BME280;4926;42.670;23.316;2023-03-22T09:15:03;94380.91;;;10.89;100.00
9774;BME280;4926;42.670;23.316;2023-03-22T09:17:31;94386.34;;;10.98;100.00
9774;BME280;4926;42.670;23.316;2023-03-22T09:19:58;94390.56;;;10.99;100.00
9774;BME280;4926;42.670;23.316;2023-03-22T09:22:25;94400.38;;;11.03;100.00
9774;BME280;4926;42.670;23.316;2023-03-22T09:24:52;94387.25;;;11.07;100.00
9774;BME280;4926;42.670;23.316;2023-03-22T09:27:25;94395.66;;;11.14;100.00
9774;BME280;4926;42.670;23.316;2023-03-22T09:29:54;94393.41;;;11.21;100.00
9774;BME280;4926;42.670;23.316;2023-03-22T09:32:21;94394.47;;;11.20;100.00
9774;BME280;4926;42.670;23.316;2023-03-22T09:34:48;94385.81;;;11.28;100.00
9774;BME280;4926;42.670;23.316;2023-03-22T09:37:14;94383.66;;;11.30;100.00
9774;BME280;4926;42.670;23.316;2023-03-22T09:39:41;94390.34;;;11.41;100.00
9774;BME280;4926;42.670;23.316;2023-03-22T09:42:19;94391.25;;;11.50;100.00
9774;BME280;4926;42.670;23.316;2023-03-22T09:44:51;94388.19;;;11.43;100.00
9774;BME280;4926;42.670;23.316;2023-03-22T09:47:25;94384.22;;;11.41;100.00
9774;BME280;4926;42.670;23.316;2023-03-22T09:50:04;94388.19;;;11.43;100.00
9774;BME280;4926;42.670;23.316;2023-03-22T09:52:32;94386.31;;;11.44;100.00
9774;BME280;4926;42.670;23.316;2023-03-22T09:55:01;94385.63;;;11.38;100.00
9774;BME280;4926;42.670;23.316;2023-03-22T09:57:31;94386.00;;;11.45;100.00
9774;BME280;4926;42.670;23.316;2023-03-22T10:00:10;94384.16;;;11.46;100.00
9774;BME280;4926;42.670;23.316;2023-03-22T10:02:56;94384.41;;;11.44;100.00
9774;BME280;4926;42.670;23.316;2023-03-22T10:05:30;94386.31;;;11.44;100.00
9774;BME280;4926;42.670;23.316;2023-03-22T10:08:17;94397.94;;;11.48;100.00
9774;BME280;4926;42.670;23.316;2023-03-22T10:10:45;94398.63;;;11.53;100.00
9774;BME280;4926;42.670;23.316;2023-03-22T10:13:16;94392.34;;;11.49;100.00
9774;BME280;4926;42.670;23.316;2023-03-22T10:15:49;94399.44;;;11.54;100.00
9774;BME280;4926;42.670;23.316;2023-03-22T10:18:18;94400.91;;;11.46;100.00
9774;BME280;4926;42.670;23.316;2023-03-22T10:20:49;94410.91;;;11.54;100.00
9774;BME280;4926;42.670;23.316;2023-03-22T10:23:26;94408.69;;;11.29;100.00
9774;BME280;4926;42.670;23.316;2023-03-22T10:25:55;94413.63;;;11.22;100.00
9774;BME280;4926;42.670;23.316;2023-03-22T10:28:25;94407.81;;;11.34;100.00
9774;BME280;4926;42.670;23.316;2023-03-22T10:30:57;94401.00;;;11.41;100.00
9774;BME280;4926;42.670;23.316;2023-03-22T10:33:34;94406.06;;;11.56;100.00
9774;BME280;4926;42.670;23.316;2023-03-22T10:36:05;94402.09;;;11.54;100.00
9774;BME280;4926;42.670;23.316;2023-03-22T10:38:39;94402.81;;;11.59;100.00
9774;BME280;4926;42.670;23.316;2023-03-22T10:41:09;94398.88;;;11.70;100.00
9774;BME280;4926;42.670;23.316;2023-03-22T10:43:37;94401.44;;;11.75;100.00
9774;BME280;4926;42.670;23.316;2023-03-22T10:46:18;94400.25;;;11.81;100.00
9774;BME280;4926;42.670;23.316;2023-03-22T10:48:48;94392.25;;;11.81;100.00
9774;BME280;4926;42.670;23.316;2023-03-22T10:51:22;94391.56;;;11.89;100.00
9774;BME280;4926;42.670;23.316;2023-03-22T10:53:52;94398.25;;;12.00;100.00
9774;BME280;4926;42.670;23.316;2023-03-22T10:56:23;94405.69;;;12.03;100.00
9774;BME280;4926;42.670;23.316;2023-03-22T10:58:51;94397.44;;;12.13;100.00
9774;BME280;4926;42.670;23.316;2023-03-22T11:01:27;94389.16;;;12.01;100.00
9774;BME280;4926;42.670;23.316;2023-03-22T11:03:59;94395.28;;;12.02;100.00
9774;BME280;4926;42.670;23.316;2023-03-22T11:06:48;94397.66;;;12.03;100.00
9774;BME280;4926;42.670;23.316;2023-03-22T11:09:16;94398.44;;;12.04;100.00
9774;BME280;4926;42.670;23.316;2023-03-22T11:11:48;94392.16;;;12.00;100.00
9774;BME280;4926;42.670;23.316;2023-03-22T11:14:19;94403.03;;;11.76;100.00
9774;BME280;4926;42.670;23.316;2023-03-22T11:16:52;94403.03;;;11.76;100.00
9774;BME280;4926;42.670;23.316;2023-03-22T11:19:24;94399.84;;;11.74;100.00
9774;BME280;4926;42.670;23.316;2023-03-22T11:21:53;94395.13;;;11.71;100.00
9774;BME280;4926;42.670;23.316;2023-03-22T11:24:24;94388.13;;;11.75;100.00
9774;BME280;4926;42.670;23.316;2023-03-22T11:27:05;94387.03;;;11.76;100.00
9774;BME280;4926;42.670;23.316;2023-03-22T11:29:39;94390.19;;;11.78;100.00
9774;BME280;4926;42.670;23.316;2023-03-22T11:32:19;94388.97;;;11.84;100.00
9774;BME280;4926;42.670;23.316;2023-03-22T11:34:58;94388.22;;;11.84;100.00
9774;BME280;4926;42.670;23.316;2023-03-22T11:37:28;94384.94;;;11.87;100.00
9774;BME280;4926;42.670;23.316;2023-03-22T11:39:59;94387.00;;;11.90;100.00
9774;BME280;4926;42.670;23.316;2023-03-22T11:42:26;94385.63;;;11.92;100.00
9774;BME280;4926;42.670;23.316;2023-03-22T11:44:54;94387.41;;;11.83;100.00
9774;BME280;4926;42.670;23.316;2023-03-22T11:47:24;94383.84;;;11.88;100.00
9774;BME280;4926;42.670;23.316;2023-03-22T11:49:52;94378.31;;;11.84;100.00
9774;BME280;4926;42.670;23.316;2023-03-22T11:52:23;94380.00;;;11.80;100.00
9774;BME280;4926;42.670;23.316;2023-03-22T11:54:52;94384.97;;;11.73;100.00
9774;BME280;4926;42.670;23.316;2023-03-22T11:57:22;94366.09;;;11.70;100.00
9774;BME280;4926;42.670;23.316;2023-03-22T11:59:55;94377.34;;;11.80;100.00
9774;BME280;4926;42.670;23.316;2023-03-22T12:02:26;94395.13;;;11.71;100.00
9774;BME280;4926;42.670;23.316;2023-03-22T12:04:58;94387.44;;;11.70;100.00
9774;BME280;4926;42.670;23.316;2023-03-22T12:07:28;94386.03;;;11.72;100.00
9774;BME280;4926;42.670;23.316;2023-03-22T12:10:01;94384.88;;;11.65;100.00
9774;BME280;4926;42.670;23.316;2023-03-22T12:12:30;94393.31;;;11.53;100.00
9774;BME280;4926;42.670;23.316;2023-03-22T12:15:01;94386.50;;;11.47;100.00
9774;BME280;4926;42.670;23.316;2023-03-22T12:17:36;94388.78;;;11.40;100.00
9774;BME280;4926;42.670;23.316;2023-03-22T12:20:14;94385.63;;;11.52;100.00
9774;BME280;4926;42.670;23.316;2023-03-22T12:22:44;94361.81;;;11.42;100.00
9774;BME280;4926;42.670;23.316;2023-03-22T12:25:17;94381.28;;;11.42;100.00
9774;BME280;4926;42.670;23.316;2023-03-22T12:27:47;94383.00;;;11.06;100.00
9774;BME280;4926;42.670;23.316;2023-03-22T12:30:19;94376.91;;;11.19;100.00
9774;BME280;4926;42.670;23.316;2023-03-22T12:32:51;94363.00;;;11.36;100.00
9774;BME280;4926;42.670;23.316;2023-03-22T12:35:21;94369.31;;;11.53;100.00
9774;BME280;4926;42.670;23.316;2023-03-22T12:37:53;94376.56;;;11.66;100.00
9774;BME280;4926;42.670;23.316;2023-03-22T12:40:25;94378.31;;;11.57;100.00
9774;BME280;4926;42.670;23.316;2023-03-22T12:43:02;94368.44;;;11.44;100.00
9774;BME280;4926;42.670;23.316;2023-03-22T12:45:34;94366.66;;;11.53;100.00
9774;BME280;4926;42.670;23.316;2023-03-22T12:48:15;94368.25;;;11.54;100.00
9774;BME280;4926;42.670;23.316;2023-03-22T12:50:50;94375.75;;;11.79;100.00
9774;BME280;4926;42.670;23.316;2023-03-22T12:53:18;94373.38;;;11.78;100.00
9774;BME280;4926;42.670;23.316;2023-03-22T12:55:46;94365.47;;;12.00;100.00
9774;BME280;4926;42.670;23.316;2023-03-22T12:58:19;94373.28;;;11.96;100.00
9774;BME280;4926;42.670;23.316;2023-03-22T13:00:49;94375.00;;;12.14;100.00
9774;BME280;4926;42.670;23.316;2023-03-22T13:03:24;94374.13;;;12.19;100.00
9774;BME280;4926;42.670;23.316;2023-03-22T13:06:04;94378.22;;;12.25;100.00
9774;BME280;4926;42.670;23.316;2023-03-22T13:09:04;94371.88;;;12.34;99.34
9774;BME280;4926;42.670;23.316;2023-03-22T13:11:37;94370.19;;;12.38;96.84
9774;BME280;4926;42.670;23.316;2023-03-22T13:14:04;94361.97;;;12.35;96.77
9774;BME280;4926;42.670;23.316;2023-03-22T13:16:49;94368.00;;;12.41;96.95
9774;BME280;4926;42.670;23.316;2023-03-22T13:19:27;94368.53;;;12.29;97.23
9774;BME280;4926;42.670;23.316;2023-03-22T13:22:13;94368.13;;;12.35;97.10
9774;BME280;4926;42.670;23.316;2023-03-22T13:25:06;94365.06;;;12.06;99.58
9774;BME280;4926;42.670;23.316;2023-03-22T13:27:41;94358.63;;;12.07;100.00